Time;durP1;ratioP1;P1;durP2;ratioP2;P2;SDS_P1;SDS_P2;PMS_P1;PMS_P2;Temp;Humidity;BMP_temperature;BMP_pressure;BME280_temperature;BME280_humidity;BME280_pressure;Samples;Min_cycle;Max_cycle;Signal;HPM_P1;HPM_P2
2024/02/05 00:01:27;;;;;;;59.70;55.30;;;;;;;;;;5093525;28;20473;-78
2024/02/05 00:03:54;;;;;;;56.27;51.87;;;;;;;;;;5108934;28;20452;-77
2024/02/05 00:06:21;;;;;;;56.93;52.67;;;;;;;;;;5090622;28;20502;-77
2024/02/05 00:08:48;;;;;;;59.40;54.30;;;;;;;;;;5090783;28;20534;-78
2024/02/05 00:11:15;;;;;;;53.27;49.77;;;;;;;;;;5095404;28;20939;-78
2024/02/05 00:13:43;;;;;;;54.70;50.63;;;;;;;;;;5110131;28;20459;-78
2024/02/05 00:16:12;;;;;;;50.20;46.80;;;;;;;;;;5100470;28;20862;-77
2024/02/05 00:18:39;;;;;;;51.33;47.73;;;;;;;;;;5105438;28;20426;-78
2024/02/05 00:21:09;;;;;;;50.67;46.90;;;;;;;;;;5090580;28;21282;-77
2024/02/05 00:23:36;;;;;;;57.43;52.53;;;;;;;;;;5094925;28;20480;-78
2024/02/05 00:26:04;;;;;;;56.17;52.23;;;;;;;;;;5102615;28;20499;-79
2024/02/05 00:28:31;;;;;;;57.20;53.00;;;;;;;;;;5100564;28;20822;-78
2024/02/05 00:31:00;;;;;;;60.57;56.37;;;;;;;;;;5095918;28;20460;-79
2024/02/05 00:33:27;;;;;;;55.40;51.63;;;;;;;;;;5100941;28;20472;-77
2024/02/05 00:35:55;;;;;;;57.20;53.43;;;;;;;;;;5098089;28;20784;-79
2024/02/05 00:38:23;;;;;;;56.10;52.40;;;;;;;;;;5089405;28;20997;-77
2024/02/05 00:40:51;;;;;;;55.50;51.57;;;;;;;;;;5089930;28;20468;-79
2024/02/05 00:43:19;;;;;;;55.20;50.90;;;;;;;;;;5089402;28;20473;-77
2024/02/05 00:45:46;;;;;;;55.10;51.00;;;;;;;;;;5089600;28;20457;-78
2024/02/05 00:48:15;;;;;;;53.10;49.50;;;;;;;;;;5088164;28;20477;-77
2024/02/05 00:50:42;;;;;;;55.30;51.03;;;;;;;;;;5099199;28;20479;-78
2024/02/05 00:53:10;;;;;;;53.60;49.90;;;;;;;;;;5094222;28;20445;-77
2024/02/05 00:55:37;;;;;;;55.53;51.20;;;;;;;;;;5094312;28;20518;-77
2024/02/05 00:58:04;;;;;;;49.90;46.30;;;;;;;;;;5089037;28;20844;-78
2024/02/05 01:00:31;;;;;;;51.93;48.53;;;;;;;;;;5089659;28;20464;-77
2024/02/05 01:03:01;;;;;;;52.00;48.50;;;;;;;;;;5090068;28;20440;-77
2024/02/05 01:05:30;;;;;;;54.50;50.40;;;;;;;;;;5090239;28;20445;-77
2024/02/05 01:07:57;;;;;;;52.50;49.00;;;;;;;;;;5089693;28;20485;-78
2024/02/05 01:10:25;;;;;;;57.63;53.17;;;;;;;;;;5089308;28;20485;-77
2024/02/05 01:12:52;;;;;;;52.90;49.40;;;;;;;;;;5097383;28;20821;-78
2024/02/05 01:15:19;;;;;;;53.40;50.00;;;;;;;;;;5110167;28;20454;-77
2024/02/05 01:17:47;;;;;;;59.47;54.80;;;;;;;;;;5110334;28;20548;-78
2024/02/05 01:20:14;;;;;;;55.37;51.63;;;;;;;;;;5109813;28;20908;-77
2024/02/05 01:22:43;;;;;;;57.03;53.23;;;;;;;;;;5110157;28;20448;-77
2024/02/05 01:25:11;;;;;;;57.87;53.73;;;;;;;;;;5110427;28;20463;-77
2024/02/05 01:27:38;;;;;;;52.80;49.40;;;;;;;;;;5109706;28;20550;-77
2024/02/05 01:30:06;;;;;;;53.50;49.73;;;;;;;;;;5110063;28;20501;-77
2024/02/05 01:32:33;;;;;;;54.83;51.27;;;;;;;;;;5109417;28;20492;-77
2024/02/05 01:35:01;;;;;;;51.93;48.00;;;;;;;;;;5092441;28;20465;-77
2024/02/05 01:37:28;;;;;;;57.70;53.07;;;;;;;;;;5089210;28;20453;-78
2024/02/05 01:39:56;;;;;;;53.77;50.37;;;;;;;;;;5089631;28;20469;-77
2024/02/05 01:42:24;;;;;;;53.17;49.33;;;;;;;;;;5090098;28;20445;-78
2024/02/05 01:44:51;;;;;;;51.30;48.10;;;;;;;;;;5089675;28;20501;-77
2024/02/05 01:47:19;;;;;;;56.17;51.80;;;;;;;;;;5088933;28;20460;-78
2024/02/05 01:49:47;;;;;;;53.50;49.53;;;;;;;;;;5092396;28;20477;-78
2024/02/05 01:52:16;;;;;;;54.13;49.73;;;;;;;;;;5095239;28;20536;-77
2024/02/05 01:54:44;;;;;;;54.17;50.60;;;;;;;;;;5111826;28;20471;-78
2024/02/05 01:57:13;;;;;;;59.17;54.30;;;;;;;;;;5112514;28;21185;-77
2024/02/05 01:59:41;;;;;;;54.47;50.90;;;;;;;;;;5106220;28;20475;-78
2024/02/05 02:02:08;;;;;;;56.27;52.37;;;;;;;;;;5114095;28;20419;-78
2024/02/05 02:04:36;;;;;;;53.57;49.87;;;;;;;;;;5114340;28;20804;-77
2024/02/05 02:07:03;;;;;;;54.47;49.63;;;;;;;;;;5113288;28;20439;-78
2024/02/05 02:09:33;;;;;;;52.27;48.47;;;;;;;;;;5113899;28;20881;-77
2024/02/05 02:12:00;;;;;;;50.77;47.10;;;;;;;;;;5108807;28;20508;-78
2024/02/05 02:14:29;;;;;;;58.23;53.37;;;;;;;;;;5102943;28;20458;-78
2024/02/05 02:16:56;;;;;;;54.90;50.80;;;;;;;;;;5105751;28;20449;-78
2024/02/05 02:19:28;;;;;;;49.50;46.40;;;;;;;;;;5104391;28;21221;-77
2024/02/05 02:21:59;;;;;;;50.77;47.27;;;;;;;;;;5109549;28;20468;-78
2024/02/05 02:24:28;;;;;;;54.03;49.97;;;;;;;;;;5108520;28;20451;-78
2024/02/05 02:26:55;;;;;;;56.50;51.40;;;;;;;;;;5105260;28;20459;-77
2024/02/05 02:29:24;;;;;;;52.43;48.40;;;;;;;;;;5108991;28;20535;-76
2024/02/05 02:31:54;;;;;;;55.53;51.33;;;;;;;;;;5110609;28;21095;-76
2024/02/05 02:34:26;;;;;;;55.87;51.23;;;;;;;;;;5109416;28;20899;-76
2024/02/05 02:37:00;;;;;;;55.23;51.10;;;;;;;;;;5107221;28;20452;-77
2024/02/05 02:39:40;;;;;;;56.53;52.23;;;;;;;;;;5106982;28;20865;-77
2024/02/05 02:42:08;;;;;;;58.90;54.47;;;;;;;;;;5106457;28;20468;-77
2024/02/05 02:44:36;;;;;;;57.57;52.93;;;;;;;;;;5104762;28;20556;-77
2024/02/05 02:47:03;;;;;;;53.00;48.90;;;;;;;;;;5111310;28;20448;-77
2024/02/05 02:49:30;;;;;;;56.43;52.47;;;;;;;;;;5109139;28;20547;-77
2024/02/05 02:51:57;;;;;;;54.20;50.40;;;;;;;;;;5111836;28;20509;-76
2024/02/05 02:54:24;;;;;;;58.30;53.90;;;;;;;;;;5112639;28;20435;-77
2024/02/05 02:56:53;;;;;;;57.93;53.73;;;;;;;;;;5110406;28;20428;-77
2024/02/05 02:59:20;;;;;;;59.27;54.80;;;;;;;;;;5107351;28;20493;-77
2024/02/05 03:01:48;;;;;;;62.73;57.13;;;;;;;;;;5091404;28;20487;-77
2024/02/05 03:04:15;;;;;;;57.27;52.90;;;;;;;;;;5091563;28;20461;-76
2024/02/05 03:06:42;;;;;;;55.60;51.77;;;;;;;;;;5091766;28;20519;-75
2024/02/05 03:09:10;;;;;;;57.03;52.23;;;;;;;;;;5091824;28;20542;-76
2024/02/05 03:11:37;;;;;;;57.93;53.63;;;;;;;;;;5105919;28;20861;-77
2024/02/05 03:14:05;;;;;;;59.80;55.27;;;;;;;;;;5099430;28;20469;-77
2024/02/05 03:16:32;;;;;;;55.63;51.63;;;;;;;;;;5091255;28;20445;-77
2024/02/05 03:18:59;;;;;;;52.90;49.30;;;;;;;;;;5091489;28;20416;-77
2024/02/05 03:21:27;;;;;;;50.83;47.40;;;;;;;;;;5109439;28;20452;-76
2024/02/05 03:23:54;;;;;;;52.87;48.87;;;;;;;;;;5111133;28;20576;-76
2024/02/05 03:26:21;;;;;;;56.80;51.70;;;;;;;;;;5093062;28;20457;-77
2024/02/05 03:28:48;;;;;;;61.57;56.17;;;;;;;;;;5096771;28;21013;-76
2024/02/05 03:31:17;;;;;;;61.57;57.00;;;;;;;;;;5112015;28;20448;-76
2024/02/05 03:33:44;;;;;;;54.17;50.93;;;;;;;;;;5111563;28;20572;-76
2024/02/05 03:36:11;;;;;;;58.80;54.63;;;;;;;;;;5111119;28;20901;-76
2024/02/05 03:38:38;;;;;;;56.43;52.23;;;;;;;;;;5111685;28;20838;-77
2024/02/05 03:41:08;;;;;;;55.63;51.50;;;;;;;;;;5111477;28;21038;-76
2024/02/05 03:43:36;;;;;;;58.40;54.00;;;;;;;;;;5111370;28;21074;-76
2024/02/05 03:46:04;;;;;;;53.33;49.93;;;;;;;;;;5110821;28;20448;-78
2024/02/05 03:48:32;;;;;;;53.03;49.47;;;;;;;;;;5111407;28;21122;-78
2024/02/05 03:50:59;;;;;;;51.03;47.63;;;;;;;;;;5111568;28;20459;-76
2024/02/05 03:53:27;;;;;;;53.70;50.20;;;;;;;;;;5111343;28;20811;-76
2024/02/05 03:55:54;;;;;;;50.27;47.10;;;;;;;;;;5108783;28;20483;-77
2024/02/05 03:58:21;;;;;;;52.27;48.77;;;;;;;;;;5092276;28;20499;-79
2024/02/05 04:00:48;;;;;;;54.87;51.47;;;;;;;;;;5111382;28;20510;-77
2024/02/05 04:03:15;;;;;;;53.03;49.50;;;;;;;;;;5111262;28;20821;-77
2024/02/05 04:05:44;;;;;;;50.13;46.70;;;;;;;;;;5111605;28;20447;-76
2024/02/05 04:08:11;;;;;;;50.93;47.70;;;;;;;;;;5109751;28;20549;-77
2024/02/05 04:10:38;;;;;;;58.17;53.33;;;;;;;;;;5110669;28;20532;-77
2024/02/05 04:13:05;;;;;;;56.33;52.23;;;;;;;;;;5111143;28;20436;-77
2024/02/05 04:15:32;;;;;;;54.30;48.77;;;;;;;;;;5110695;28;20923;-76
2024/02/05 04:18:00;;;;;;;52.63;49.57;;;;;;;;;;5110702;28;20444;-76
2024/02/05 04:20:29;;;;;;;59.77;54.93;;;;;;;;;;5110366;28;20491;-77
2024/02/05 04:22:57;;;;;;;55.17;50.50;;;;;;;;;;5111149;28;20443;-77
2024/02/05 04:25:25;;;;;;;49.47;46.27;;;;;;;;;;5110540;28;20436;-76
2024/02/05 04:27:52;;;;;;;45.00;41.70;;;;;;;;;;5110139;28;20505;-76
2024/02/05 04:30:26;;;;;;;43.73;40.00;;;;;;;;;;5109715;28;20503;-76
2024/02/05 04:32:53;;;;;;;37.43;34.97;;;;;;;;;;5110786;28;20427;-76
2024/02/05 04:35:20;;;;;;;41.33;38.00;;;;;;;;;;5111007;28;20455;-77
2024/02/05 04:37:48;;;;;;;38.00;35.53;;;;;;;;;;5110332;28;20452;-75
2024/02/05 04:40:16;;;;;;;39.33;36.50;;;;;;;;;;5110667;28;20468;-77
2024/02/05 04:42:43;;;;;;;41.77;38.47;;;;;;;;;;5110807;28;20451;-76
2024/02/05 04:45:11;;;;;;;35.90;33.17;;;;;;;;;;5110807;28;20951;-77
2024/02/05 04:47:38;;;;;;;54.87;39.37;;;;;;;;;;5109929;28;20846;-77
2024/02/05 04:50:07;;;;;;;42.60;39.17;;;;;;;;;;5110428;28;20858;-76
2024/02/05 04:52:35;;;;;;;37.97;34.70;;;;;;;;;;5110681;28;20451;-77
2024/02/05 04:55:02;;;;;;;40.37;36.67;;;;;;;;;;5109138;28;20448;-77
2024/02/05 04:57:31;;;;;;;36.73;34.33;;;;;;;;;;5110016;28;20447;-77
2024/02/05 04:59:58;;;;;;;33.93;31.50;;;;;;;;;;5110601;28;20460;-77
2024/02/05 05:02:25;;;;;;;36.07;33.87;;;;;;;;;;5098021;28;20575;-77
2024/02/05 05:04:54;;;;;;;37.67;34.63;;;;;;;;;;5090431;28;20563;-75
2024/02/05 05:07:21;;;;;;;35.90;33.60;;;;;;;;;;5105349;28;20513;-77
2024/02/05 05:09:48;;;;;;;32.93;30.90;;;;;;;;;;5110452;28;20487;-75
2024/02/05 05:12:18;;;;;;;34.67;32.17;;;;;;;;;;5110581;28;20493;-77
2024/02/05 05:14:46;;;;;;;35.67;32.83;;;;;;;;;;5110841;28;20448;-75
2024/02/05 05:17:13;;;;;;;33.60;31.43;;;;;;;;;;5108286;28;20516;-77
2024/02/05 05:19:41;;;;;;;35.53;32.13;;;;;;;;;;5110330;28;20554;-77
2024/02/05 05:22:08;;;;;;;32.10;29.70;;;;;;;;;;5110651;28;20448;-77
2024/02/05 05:24:35;;;;;;;37.40;33.63;;;;;;;;;;5113134;28;21083;-76
2024/02/05 05:27:02;;;;;;;35.10;32.10;;;;;;;;;;5114322;28;20931;-76
2024/02/05 05:29:30;;;;;;;34.60;31.63;;;;;;;;;;5114678;28;20491;-77
2024/02/05 05:31:58;;;;;;;30.20;27.80;;;;;;;;;;5114956;28;20448;-77
2024/02/05 05:34:25;;;;;;;30.77;27.80;;;;;;;;;;5114771;28;20513;-80
2024/02/05 05:36:53;;;;;;;28.73;24.93;;;;;;;;;;5114344;28;20439;-77
2024/02/05 05:39:21;;;;;;;27.87;25.47;;;;;;;;;;5114337;28;20463;-77
2024/02/05 05:41:48;;;;;;;28.23;26.07;;;;;;;;;;5102229;28;20454;-78
2024/02/05 05:44:15;;;;;;;27.90;25.80;;;;;;;;;;5115755;27;20451;-77
2024/02/05 05:46:42;;;;;;;26.50;24.00;;;;;;;;;;5093037;28;20502;-77
2024/02/05 05:49:13;;;;;;;35.87;28.30;;;;;;;;;;5094130;28;20489;-77
2024/02/05 05:51:40;;;;;;;27.03;24.73;;;;;;;;;;5094397;28;20436;-78
2024/02/05 05:54:07;;;;;;;27.13;24.60;;;;;;;;;;5094171;28;20460;-76
2024/02/05 05:56:35;;;;;;;26.33;23.83;;;;;;;;;;5093920;28;20449;-78
2024/02/05 05:59:02;;;;;;;26.50;23.87;;;;;;;;;;5094559;28;20469;-75
2024/02/05 06:01:35;;;;;;;26.63;24.03;;;;;;;;;;5093894;28;20456;-76
2024/02/05 06:04:02;;;;;;;25.70;23.87;;;;;;;;;;5094056;28;20474;-77
2024/02/05 06:06:31;;;;;;;26.80;24.40;;;;;;;;;;5093284;28;20493;-76
2024/02/05 06:08:58;;;;;;;32.10;24.00;;;;;;;;;;5092936;28;20820;-77
2024/02/05 06:11:25;;;;;;;24.20;22.50;;;;;;;;;;5093168;28;20498;-75
2024/02/05 06:13:53;;;;;;;21.40;20.10;;;;;;;;;;5094003;28;20453;-76
2024/02/05 06:16:20;;;;;;;22.93;21.23;;;;;;;;;;5092957;28;20932;-76
2024/02/05 06:18:47;;;;;;;24.87;22.90;;;;;;;;;;5093368;28;20858;-76
2024/02/05 06:21:15;;;;;;;25.00;21.90;;;;;;;;;;5093243;28;20456;-76
2024/02/05 06:23:43;;;;;;;23.87;21.70;;;;;;;;;;5093825;28;20513;-75
2024/02/05 06:26:12;;;;;;;24.50;22.00;;;;;;;;;;5093020;28;20452;-76
2024/02/05 06:28:41;;;;;;;25.40;23.00;;;;;;;;;;5093339;28;20556;-76
2024/02/05 06:31:10;;;;;;;32.47;23.47;;;;;;;;;;5093145;28;20576;-75
2024/02/05 06:33:37;;;;;;;24.60;22.23;;;;;;;;;;5093419;28;20448;-75
2024/02/05 06:36:04;;;;;;;35.53;24.20;;;;;;;;;;5090872;28;20453;-76
2024/02/05 06:38:31;;;;;;;25.20;21.60;;;;;;;;;;5093339;28;20429;-75
2024/02/05 06:41:02;;;;;;;26.57;24.10;;;;;;;;;;5093140;28;20456;-77
2024/02/05 06:43:30;;;;;;;24.20;21.80;;;;;;;;;;5093207;28;20440;-76
2024/02/05 06:45:57;;;;;;;34.63;23.00;;;;;;;;;;5092962;28;20461;-76
2024/02/05 06:48:24;;;;;;;24.60;22.17;;;;;;;;;;5092278;28;20545;-76
2024/02/05 06:50:51;;;;;;;28.00;21.97;;;;;;;;;;5092694;28;20550;-76
2024/02/05 06:53:18;;;;;;;22.40;20.30;;;;;;;;;;5092889;28;20459;-75
2024/02/05 06:55:45;;;;;;;23.70;21.70;;;;;;;;;;5092667;28;20465;-78
2024/02/05 06:58:14;;;;;;;22.67;20.90;;;;;;;;;;5092360;28;20451;-76
2024/02/05 07:00:42;;;;;;;23.93;21.53;;;;;;;;;;5097632;28;20956;-75
2024/02/05 07:03:09;;;;;;;37.77;22.13;;;;;;;;;;5113066;28;20435;-75
2024/02/05 07:05:36;;;;;;;25.77;23.07;;;;;;;;;;5113447;28;20444;-77
2024/02/05 07:08:05;;;;;;;23.77;21.57;;;;;;;;;;5112914;28;20531;-75
2024/02/05 07:10:33;;;;;;;22.80;20.57;;;;;;;;;;5112860;28;20495;-76
2024/02/05 07:13:00;;;;;;;21.80;20.07;;;;;;;;;;5112810;28;20462;-76
2024/02/05 07:15:29;;;;;;;22.23;20.23;;;;;;;;;;5113060;28;20458;-75
2024/02/05 07:17:56;;;;;;;23.50;21.80;;;;;;;;;;5109807;28;20468;-76
2024/02/05 07:20:23;;;;;;;25.63;22.67;;;;;;;;;;5112741;28;20472;-76
2024/02/05 07:22:53;;;;;;;22.37;20.27;;;;;;;;;;5098560;28;21081;-79
2024/02/05 07:25:20;;;;;;;28.27;22.80;;;;;;;;;;5093058;28;20467;-78
2024/02/05 07:27:47;;;;;;;21.57;19.73;;;;;;;;;;5092173;28;20514;-77
2024/02/05 07:30:14;;;;;;;24.50;22.20;;;;;;;;;;5106554;28;20516;-78
2024/02/05 07:32:43;;;;;;;24.30;22.10;;;;;;;;;;5118120;28;20444;-87
2024/02/05 07:35:10;;;;;;;20.10;18.97;;;;;;;;;;5122082;28;20504;-85
2024/02/05 07:37:37;;;;;;;23.63;20.93;;;;;;;;;;5119024;28;20447;-79
2024/02/05 07:40:06;;;;;;;26.87;21.53;;;;;;;;;;5097992;28;20476;-79
2024/02/05 07:42:34;;;;;;;23.13;21.03;;;;;;;;;;5094822;28;20444;-79
2024/02/05 07:45:01;;;;;;;20.23;18.57;;;;;;;;;;5095640;28;20441;-79
2024/02/05 07:47:28;;;;;;;21.43;19.57;;;;;;;;;;5094453;28;20511;-80
2024/02/05 07:49:57;;;;;;;21.93;19.87;;;;;;;;;;5095672;28;20492;-78
2024/02/05 07:52:25;;;;;;;23.03;20.77;;;;;;;;;;5095142;28;20509;-79
2024/02/05 07:54:52;;;;;;;19.70;18.17;;;;;;;;;;5095178;28;20564;-79
2024/02/05 07:57:19;;;;;;;20.80;18.77;;;;;;;;;;5106311;28;20529;-79
2024/02/05 07:59:47;;;;;;;21.03;19.40;;;;;;;;;;5107062;28;20855;-79
2024/02/05 08:02:14;;;;;;;21.70;19.40;;;;;;;;;;5110743;28;20501;-79
2024/02/05 08:04:42;;;;;;;22.60;19.60;;;;;;;;;;5115569;28;20466;-79
2024/02/05 08:07:10;;;;;;;19.43;18.10;;;;;;;;;;5115092;28;20456;-79
2024/02/05 08:09:37;;;;;;;22.33;19.83;;;;;;;;;;5114962;28;20471;-80
2024/02/05 08:12:04;;;;;;;21.73;20.03;;;;;;;;;;5114739;28;20452;-78
2024/02/05 08:14:32;;;;;;;19.93;18.07;;;;;;;;;;5115021;28;21083;-80
2024/02/05 08:16:59;;;;;;;21.23;19.27;;;;;;;;;;5114383;28;20440;-79
2024/02/05 08:19:27;;;;;;;22.23;19.83;;;;;;;;;;5114454;28;20484;-78
2024/02/05 08:21:54;;;;;;;22.53;19.27;;;;;;;;;;5114838;28;20448;-79
2024/02/05 08:24:22;;;;;;;19.53;18.17;;;;;;;;;;5114937;28;20447;-80
2024/02/05 08:26:51;;;;;;;21.87;20.17;;;;;;;;;;5114708;28;20446;-78
2024/02/05 08:29:21;;;;;;;20.60;18.93;;;;;;;;;;5109270;28;20491;-79
2024/02/05 08:31:48;;;;;;;20.90;19.20;;;;;;;;;;5099424;28;20471;-80
2024/02/05 08:34:16;;;;;;;24.03;21.50;;;;;;;;;;5097886;28;20457;-79
2024/02/05 08:36:45;;;;;;;19.93;17.47;;;;;;;;;;5099411;28;20449;-79
2024/02/05 08:39:12;;;;;;;19.97;18.57;;;;;;;;;;5105992;28;20480;-77
2024/02/05 08:41:42;;;;;;;23.00;20.70;;;;;;;;;;5104518;28;20533;-78
2024/02/05 08:44:09;;;;;;;21.13;19.40;;;;;;;;;;5111675;28;20428;-77
2024/02/05 08:46:37;;;;;;;19.90;18.37;;;;;;;;;;5111355;28;20444;-78
2024/02/05 08:49:04;;;;;;;28.00;22.20;;;;;;;;;;5111685;28;20887;-77
2024/02/05 08:51:33;;;;;;;21.57;19.50;;;;;;;;;;5112750;28;20556;-78
2024/02/05 08:54:01;;;;;;;25.70;20.93;;;;;;;;;;5114489;28;20456;-80
2024/02/05 08:56:28;;;;;;;22.10;20.43;;;;;;;;;;5113846;28;20522;-78
2024/02/05 08:58:58;;;;;;;25.50;22.80;;;;;;;;;;5113309;28;21341;-79
2024/02/05 09:01:25;;;;;;;24.43;21.57;;;;;;;;;;5116800;28;20440;-80
2024/02/05 09:03:52;;;;;;;23.13;21.37;;;;;;;;;;5115808;28;20436;-81
2024/02/05 09:06:19;;;;;;;26.40;23.80;;;;;;;;;;5114990;28;20476;-88
2024/02/05 09:08:46;;;;;;;24.20;21.83;;;;;;;;;;5115159;28;20452;-81
2024/02/05 09:11:13;;;;;;;27.03;24.50;;;;;;;;;;5114911;28;20479;-80
2024/02/05 09:13:40;;;;;;;22.33;20.30;;;;;;;;;;5114823;28;20477;-79
2024/02/05 09:16:09;;;;;;;24.57;22.40;;;;;;;;;;5113273;28;20608;-80
2024/02/05 09:18:36;;;;;;;26.27;23.73;;;;;;;;;;5084912;22;20494;-81
2024/02/05 09:21:04;;;;;;;26.47;23.67;;;;;;;;;;5070723;28;20502;-80
2024/02/05 09:23:33;;;;;;;25.10;22.70;;;;;;;;;;5075113;28;20454;-82
2024/02/05 09:26:00;;;;;;;29.57;25.43;;;;;;;;;;5075368;28;20474;-81
2024/02/05 09:28:27;;;;;;;26.40;23.90;;;;;;;;;;5074461;28;21414;-79
2024/02/05 09:30:54;;;;;;;24.20;22.37;;;;;;;;;;5075455;28;20489;-80
2024/02/05 09:33:23;;;;;;;26.50;24.00;;;;;;;;;;5075249;28;20450;-81
2024/02/05 09:35:50;;;;;;;24.23;22.27;;;;;;;;;;5075480;28;20496;-79
2024/02/05 09:38:17;;;;;;;23.80;21.50;;;;;;;;;;5073529;28;20543;-82
2024/02/05 09:40:45;;;;;;;24.87;22.67;;;;;;;;;;5075059;28;20426;-80
2024/02/05 09:43:12;;;;;;;24.70;22.60;;;;;;;;;;5074814;28;20477;-80
2024/02/05 09:45:42;;;;;;;28.90;24.90;;;;;;;;;;5075061;28;20507;-82
2024/02/05 09:48:10;;;;;;;23.17;21.47;;;;;;;;;;5072932;28;20486;-80
2024/02/05 09:50:40;;;;;;;26.90;24.50;;;;;;;;;;5074164;28;20477;-80
2024/02/05 09:53:09;;;;;;;26.00;23.67;;;;;;;;;;5073681;28;20913;-80
2024/02/05 09:55:37;;;;;;;25.90;23.20;;;;;;;;;;5072469;28;20462;-79
2024/02/05 09:58:04;;;;;;;25.87;23.37;;;;;;;;;;5073435;28;20474;-80
2024/02/05 10:00:31;;;;;;;26.27;23.47;;;;;;;;;;5053258;28;20442;-80
2024/02/05 10:02:59;;;;;;;24.80;22.00;;;;;;;;;;5053988;28;20439;-79
2024/02/05 10:05:26;;;;;;;24.97;22.57;;;;;;;;;;5053697;28;20466;-80
2024/02/05 10:07:55;;;;;;;26.77;22.73;;;;;;;;;;5057016;28;20473;-80
2024/02/05 10:10:24;;;;;;;25.47;23.50;;;;;;;;;;5055475;28;20490;-81
2024/02/05 10:12:52;;;;;;;27.10;24.37;;;;;;;;;;5082958;28;20468;-81
2024/02/05 10:15:20;;;;;;;25.37;22.57;;;;;;;;;;5097342;28;20510;-81
2024/02/05 10:17:48;;;;;;;25.47;23.23;;;;;;;;;;5102877;28;20472;-80
2024/02/05 10:20:16;;;;;;;26.20;24.00;;;;;;;;;;5108886;28;20449;-82
2024/02/05 10:22:47;;;;;;;23.00;21.20;;;;;;;;;;5096700;28;20501;-80
2024/02/05 10:25:15;;;;;;;25.60;22.07;;;;;;;;;;5097442;28;20427;-81
2024/02/05 10:27:43;;;;;;;28.23;22.93;;;;;;;;;;5096204;28;20465;-81
2024/02/05 10:30:10;;;;;;;25.67;23.47;;;;;;;;;;5096580;28;20829;-79
2024/02/05 10:32:39;;;;;;;25.17;22.77;;;;;;;;;;5097708;28;20486;-80
2024/02/05 10:35:09;;;;;;;24.83;22.70;;;;;;;;;;5086968;28;20464;-82
2024/02/05 10:37:36;;;;;;;26.60;22.87;;;;;;;;;;5076950;28;20544;-81
2024/02/05 10:40:04;;;;;;;25.37;23.07;;;;;;;;;;5094499;28;20565;-80
2024/02/05 10:42:33;;;;;;;22.97;21.10;;;;;;;;;;5101940;28;20445;-81
2024/02/05 10:45:00;;;;;;;25.07;22.77;;;;;;;;;;5085303;28;20492;-85
2024/02/05 10:47:27;;;;;;;29.87;25.73;;;;;;;;;;5086937;28;20504;-82
2024/02/05 10:49:54;;;;;;;25.00;23.07;;;;;;;;;;5101880;28;20460;-82
2024/02/05 10:52:22;;;;;;;23.30;21.03;;;;;;;;;;5100376;28;20539;-85
2024/02/05 10:54:52;;;;;;;28.50;24.93;;;;;;;;;;5104182;28;20452;-84
2024/02/05 10:57:19;;;;;;;23.10;20.97;;;;;;;;;;5103483;28;20487;-84
2024/02/05 10:59:48;;;;;;;28.10;24.17;;;;;;;;;;5101782;28;20765;-83
2024/02/05 11:02:19;;;;;;;26.83;24.40;;;;;;;;;;5102725;28;20444;-83
2024/02/05 11:04:47;;;;;;;25.20;22.60;;;;;;;;;;5103078;28;20453;-85
2024/02/05 11:07:17;;;;;;;24.80;22.13;;;;;;;;;;5099235;28;20481;-84
2024/02/05 11:09:46;;;;;;;22.97;21.20;;;;;;;;;;5080813;28;20489;-81
2024/02/05 11:12:14;;;;;;;24.37;21.97;;;;;;;;;;5086407;28;20489;-80
2024/02/05 11:14:42;;;;;;;25.40;22.87;;;;;;;;;;5096999;28;20461;-79
2024/02/05 11:17:15;;;;;;;22.60;20.70;;;;;;;;;;5097446;28;20479;-79
2024/02/05 11:19:43;;;;;;;26.27;23.57;;;;;;;;;;5097901;28;20453;-81
2024/02/05 11:22:11;;;;;;;24.60;22.20;;;;;;;;;;5097682;28;20437;-79
2024/02/05 11:24:39;;;;;;;24.90;22.70;;;;;;;;;;5087813;28;20470;-76
2024/02/05 11:27:08;;;;;;;22.70;20.90;;;;;;;;;;5081409;28;20454;-80
2024/02/05 11:29:36;;;;;;;30.07;24.07;;;;;;;;;;5100209;28;20480;-81
2024/02/05 11:32:04;;;;;;;23.53;21.23;;;;;;;;;;5100775;28;20849;-80
2024/02/05 11:34:36;;;;;;;25.33;22.97;;;;;;;;;;5102508;28;20445;-81
2024/02/05 11:37:08;;;;;;;21.93;20.27;;;;;;;;;;5101295;28;20916;-81
2024/02/05 11:39:37;;;;;;;30.17;22.83;;;;;;;;;;5097981;28;20858;-82
2024/02/05 11:42:10;;;;;;;23.93;21.60;;;;;;;;;;5088287;28;20550;-82
2024/02/05 11:44:37;;;;;;;24.57;21.93;;;;;;;;;;5086408;28;20456;-80
2024/02/05 11:47:05;;;;;;;25.53;21.73;;;;;;;;;;5095189;28;20480;-80
2024/02/05 11:49:33;;;;;;;21.47;19.97;;;;;;;;;;5101072;28;20441;-81
2024/02/05 11:52:03;;;;;;;24.23;21.87;;;;;;;;;;5096902;28;20485;-79
2024/02/05 11:54:30;;;;;;;24.73;22.60;;;;;;;;;;5080456;28;20453;-81
2024/02/05 11:56:57;;;;;;;24.37;22.00;;;;;;;;;;5079057;28;20466;-80
2024/02/05 11:59:24;;;;;;;24.87;22.40;;;;;;;;;;5080314;28;20438;-84
2024/02/05 12:01:53;;;;;;;24.57;22.30;;;;;;;;;;5086541;28;20453;-81
2024/02/05 12:04:22;;;;;;;22.27;19.93;;;;;;;;;;5087162;28;20473;-79
2024/02/05 12:06:54;;;;;;;22.67;20.50;;;;;;;;;;5098354;28;20433;-81
2024/02/05 12:09:23;;;;;;;24.27;21.17;;;;;;;;;;5099382;28;20445;-81
2024/02/05 12:11:50;;;;;;;21.73;20.33;;;;;;;;;;5098645;28;20534;-79
2024/02/05 12:14:19;;;;;;;22.50;20.60;;;;;;;;;;5090068;28;20497;-81
2024/02/05 12:16:47;;;;;;;24.20;21.80;;;;;;;;;;5079195;28;20464;-80
2024/02/05 12:19:20;;;;;;;21.40;20.10;;;;;;;;;;5079490;28;20859;-80
2024/02/05 12:21:48;;;;;;;27.70;22.60;;;;;;;;;;5079768;28;20446;-80
2024/02/05 12:24:15;;;;;;;23.13;21.10;;;;;;;;;;5080426;28;20509;-81
2024/02/05 12:26:45;;;;;;;23.23;21.40;;;;;;;;;;5079730;28;20503;-81
2024/02/05 12:29:12;;;;;;;26.83;24.60;;;;;;;;;;5097397;28;20518;-79
2024/02/05 12:31:39;;;;;;;23.67;21.77;;;;;;;;;;5101120;28;20484;-79
2024/02/05 12:34:06;;;;;;;29.50;24.20;;;;;;;;;;5100602;28;20967;-81
2024/02/05 12:36:36;;;;;;;25.20;22.80;;;;;;;;;;5100478;28;20469;-79
2024/02/05 12:39:05;;;;;;;26.27;23.60;;;;;;;;;;5099566;28;20465;-81
2024/02/05 12:41:32;;;;;;;29.23;25.10;;;;;;;;;;5100631;28;20523;-79
2024/02/05 12:44:01;;;;;;;26.30;23.67;;;;;;;;;;5100888;28;20441;-82
2024/02/05 12:46:35;;;;;;;26.83;24.63;;;;;;;;;;5098738;28;20475;-82
2024/02/05 12:49:03;;;;;;;30.47;27.30;;;;;;;;;;5099698;28;20477;-81
2024/02/05 12:51:31;;;;;;;27.73;24.37;;;;;;;;;;5094570;28;20481;-81
2024/02/05 12:53:59;;;;;;;26.67;24.23;;;;;;;;;;5080351;28;20995;-79
2024/02/05 12:56:28;;;;;;;24.37;22.67;;;;;;;;;;5118307;28;20467;-81
2024/02/05 12:59:03;;;;;;;28.57;25.87;;;;;;;;;;5120616;28;20468;-81
2024/02/05 13:01:31;;;;;;;25.87;23.37;;;;;;;;;;5120186;28;20443;-80
2024/02/05 13:03:58;;;;;;;26.80;24.40;;;;;;;;;;5120427;28;20452;-80
2024/02/05 13:06:27;;;;;;;26.17;24.03;;;;;;;;;;5118578;28;20512;-79
2024/02/05 13:08:56;;;;;;;26.70;24.67;;;;;;;;;;5114797;28;20477;-84
2024/02/05 13:11:29;;;;;;;25.33;23.53;;;;;;;;;;5081607;28;20512;-80
2024/02/05 13:13:56;;;;;;;24.50;23.00;;;;;;;;;;5081553;28;20492;-81
2024/02/05 13:16:26;;;;;;;36.13;28.00;;;;;;;;;;5081506;28;20938;-86
2024/02/05 13:18:54;;;;;;;28.60;25.57;;;;;;;;;;5098991;28;20476;-82
2024/02/05 13:21:21;;;;;;;26.13;24.07;;;;;;;;;;5098942;28;20453;-77
2024/02/05 13:23:49;;;;;;;32.53;27.23;;;;;;;;;;5094751;28;20472;-77
2024/02/05 13:26:16;;;;;;;34.03;24.80;;;;;;;;;;5090989;28;20458;-84
2024/02/05 13:28:45;;;;;;;25.67;23.70;;;;;;;;;;5093395;28;20579;-82
2024/02/05 13:31:12;;;;;;;26.87;24.77;;;;;;;;;;5099641;28;20429;-81
2024/02/05 13:33:42;;;;;;;26.63;24.40;;;;;;;;;;5087482;28;20512;-80
2024/02/05 13:36:10;;;;;;;25.27;23.03;;;;;;;;;;5099392;28;20451;-82
2024/02/05 13:38:37;;;;;;;23.90;21.73;;;;;;;;;;5100334;28;20464;-82
2024/02/05 13:41:05;;;;;;;28.53;26.27;;;;;;;;;;5095884;28;20496;-81
2024/02/05 13:43:32;;;;;;;30.37;27.87;;;;;;;;;;5091090;28;20429;-80
2024/02/05 13:46:03;;;;;;;26.27;24.53;;;;;;;;;;5083216;28;20465;-82
2024/02/05 13:48:30;;;;;;;24.57;22.47;;;;;;;;;;5084066;28;20956;-81
2024/02/05 13:51:05;;;;;;;26.53;24.17;;;;;;;;;;5084084;28;20441;-81
2024/02/05 13:53:34;;;;;;;23.00;21.37;;;;;;;;;;5083255;28;20472;-83
2024/02/05 13:56:04;;;;;;;22.33;20.93;;;;;;;;;;5082769;28;20474;-82
2024/02/05 13:58:31;;;;;;;23.87;21.90;;;;;;;;;;5083451;28;20457;-82
2024/02/05 14:00:58;;;;;;;24.37;22.50;;;;;;;;;;5083110;28;20441;-82
2024/02/05 14:03:25;;;;;;;30.40;27.53;;;;;;;;;;5087382;28;20441;-82
2024/02/05 14:05:52;;;;;;;27.20;24.77;;;;;;;;;;5101766;28;20506;-82
2024/02/05 14:08:20;;;;;;;32.73;24.67;;;;;;;;;;5103454;28;20465;-81
2024/02/05 14:10:49;;;;;;;27.00;24.43;;;;;;;;;;5104408;28;20455;-81
2024/02/05 14:13:16;;;;;;;27.53;24.77;;;;;;;;;;5103342;28;20492;-81
2024/02/05 14:15:43;;;;;;;28.87;26.33;;;;;;;;;;5103727;28;20453;-81
2024/02/05 14:18:10;;;;;;;24.10;22.23;;;;;;;;;;5101643;28;20959;-81
2024/02/05 14:20:37;;;;;;;26.93;24.07;;;;;;;;;;5103374;28;20466;-82